Barrancabermeja, Barrancabermeja Yariguies Airport (SKEJ)

NameBarrancabermeja Yariguies Airport
CityBarrancabermeja
CountryColombia
ICAOSKEJ
IATAEJA
Altitude126 m
CoordinatesGoogle Map
Live Air TrafficLiveATC.net
METARSKEJ 251700Z VRB02KT 9999 SCT020 31/25 A2984
2020-04-25 17:00:00 Wind: North (0°) 1.03 m/s - Visibility: > 10000 m - Temperature: 31 °C - Dew point: 25 °C - Humidity: 70.4% - Pressure: 1010.5 hPa

Sorry, no flights used the airport in this database.